createdAt,value
2023-05-16T00:00:02.310Z,13.23
2023-05-16T00:02:29.193Z,13.23
2023-05-16T00:04:56.133Z,20.88
2023-05-16T00:07:22.934Z,15.20
2023-05-16T00:09:49.838Z,18.45
2023-05-16T00:12:17.979Z,14.65
2023-05-16T00:14:45.181Z,18.92
2023-05-16T00:17:12.406Z,14.30
2023-05-16T00:19:39.305Z,14.40
2023-05-16T00:22:06.546Z,12.82
2023-05-16T00:24:34.399Z,14.18
2023-05-16T00:27:01.404Z,15.35
2023-05-16T00:29:28.327Z,12.63
2023-05-16T00:31:55.160Z,14.15
2023-05-16T00:34:23.072Z,12.10
2023-05-16T00:36:50.392Z,11.30
2023-05-16T00:39:17.176Z,12.45
2023-05-16T00:41:44.691Z,14.95
2023-05-16T00:44:11.441Z,11.27
2023-05-16T00:46:40.042Z,13.88
2023-05-16T00:49:07.904Z,11.13
2023-05-16T00:51:35.891Z,14.30
2023-05-16T00:54:03.152Z,11.95
2023-05-16T00:56:30.288Z,15.35
2023-05-16T00:58:57.455Z,11.43
2023-05-16T01:01:27.342Z,14.52
2023-05-16T01:03:55.509Z,15.55
2023-05-16T01:06:22.378Z,12.40
2023-05-16T01:08:49.198Z,13.18
2023-05-16T01:11:38.891Z,14.65
2023-05-16T01:14:27.678Z,12.70
2023-05-16T01:17:06.554Z,12.88
2023-05-16T01:20:14.998Z,14.90
2023-05-16T01:22:46.091Z,10.65
2023-05-16T01:25:38.288Z,13.20
2023-05-16T01:28:06.247Z,13.30
2023-05-16T01:30:40.138Z,17.08
2023-05-16T01:33:07.403Z,14.15
2023-05-16T01:35:40.061Z,15.25
2023-05-16T01:38:21.258Z,14.55
2023-05-16T01:40:57.132Z,16.25
2023-05-16T01:43:54.094Z,15.95
2023-05-16T01:46:26.120Z,11.38
2023-05-16T01:49:07.281Z,12.93
2023-05-16T01:51:38.822Z,12.00
2023-05-16T01:54:11.082Z,12.80
2023-05-16T01:56:38.910Z,13.93
2023-05-16T01:59:06.454Z,12.43
2023-05-16T02:01:33.790Z,13.13
2023-05-16T02:04:00.705Z,14.00
2023-05-16T02:06:27.662Z,14.27
2023-05-16T02:08:54.406Z,13.55
2023-05-16T02:11:22.165Z,13.25
2023-05-16T02:13:48.945Z,15.25
2023-05-16T02:16:15.815Z,12.32
2023-05-16T02:18:43.052Z,13.80
2023-05-16T02:21:09.834Z,11.63
2023-05-16T02:23:36.496Z,11.57
2023-05-16T02:26:03.667Z,12.65
2023-05-16T02:28:30.682Z,11.15
2023-05-16T02:31:01.520Z,12.70
2023-05-16T02:33:29.196Z,11.02
2023-05-16T02:35:56.127Z,10.75
2023-05-16T02:38:22.937Z,11.65
2023-05-16T02:40:50.642Z,13.15
2023-05-16T02:43:17.483Z,9.50
2023-05-16T02:45:44.478Z,10.43
2023-05-16T02:48:12.036Z,9.57
2023-05-16T02:50:40.288Z,10.98
2023-05-16T02:53:07.080Z,10.68
2023-05-16T02:55:34.239Z,12.15
2023-05-16T02:58:01.361Z,9.02
2023-05-16T03:00:28.073Z,11.00
2023-05-16T03:02:54.811Z,12.23
2023-05-16T03:05:21.799Z,9.02
2023-05-16T03:07:48.526Z,9.35
2023-05-16T03:10:15.554Z,10.27
2023-05-16T03:12:42.234Z,9.40
2023-05-16T03:15:09.659Z,10.82
2023-05-16T03:17:36.656Z,10.43
2023-05-16T03:20:05.174Z,12.70
2023-05-16T03:22:31.970Z,10.55
2023-05-16T03:24:58.711Z,11.35
2023-05-16T03:27:27.086Z,10.75
2023-05-16T03:29:53.819Z,10.50
2023-05-16T03:32:20.689Z,9.68
2023-05-16T03:34:47.571Z,13.27
2023-05-16T03:37:16.030Z,8.63
2023-05-16T03:39:42.777Z,9.15
2023-05-16T03:42:10.030Z,9.05
2023-05-16T03:44:36.777Z,9.23
2023-05-16T03:47:03.894Z,8.68
2023-05-16T03:49:30.771Z,9.18
2023-05-16T03:51:57.751Z,11.15
2023-05-16T03:54:24.582Z,7.80
2023-05-16T03:56:51.348Z,8.63
2023-05-16T03:59:18.164Z,8.27
2023-05-16T04:01:44.969Z,6.18
2023-05-16T04:04:11.760Z,8.88
2023-05-16T04:06:38.564Z,9.75
2023-05-16T04:09:06.526Z,12.63
2023-05-16T04:11:34.203Z,12.00
2023-05-16T04:14:01.864Z,9.07
2023-05-16T04:16:28.975Z,11.45
2023-05-16T04:18:56.665Z,11.15
2023-05-16T04:21:23.713Z,9.73
2023-05-16T04:23:50.794Z,8.52
2023-05-16T04:26:17.892Z,11.98
2023-05-16T04:28:44.813Z,9.05
2023-05-16T04:31:11.737Z,8.65
2023-05-16T04:33:38.462Z,11.70
2023-05-16T04:36:06.284Z,10.57
2023-05-16T04:38:33.085Z,10.90
2023-05-16T04:40:59.991Z,10.48
2023-05-16T04:43:27.035Z,8.40
2023-05-16T04:45:54.161Z,8.93
2023-05-16T04:48:21.032Z,13.23
2023-05-16T04:50:47.851Z,9.05
2023-05-16T04:53:15.142Z,8.63
2023-05-16T04:55:42.130Z,9.75
2023-05-16T04:58:08.949Z,9.25
2023-05-16T05:00:35.822Z,9.30
2023-05-16T05:03:02.640Z,7.03
2023-05-16T05:05:29.670Z,8.45
2023-05-16T05:07:58.446Z,7.10
2023-05-16T05:10:25.287Z,8.23
2023-05-16T05:12:52.028Z,7.80
2023-05-16T05:15:19.273Z,6.30
2023-05-16T05:17:46.099Z,8.40
2023-05-16T05:20:13.118Z,7.25
2023-05-16T05:22:39.904Z,10.60
2023-05-16T05:25:06.933Z,8.25
2023-05-16T05:27:33.636Z,7.78
2023-05-16T05:30:00.505Z,9.63
2023-05-16T05:32:27.216Z,11.60
2023-05-16T05:34:54.073Z,9.02
2023-05-16T05:37:21.129Z,7.97
2023-05-16T05:39:47.943Z,6.25
2023-05-16T05:42:14.681Z,8.65
2023-05-16T05:44:41.476Z,9.45
2023-05-16T05:47:08.337Z,7.97
2023-05-16T05:49:36.011Z,7.75
2023-05-16T05:52:03.032Z,7.70
2023-05-16T05:54:30.297Z,8.57
2023-05-16T05:56:58.383Z,9.35
2023-05-16T05:59:25.481Z,8.10
2023-05-16T06:01:52.842Z,7.28
2023-05-16T06:04:20.811Z,8.75
2023-05-16T06:06:48.170Z,10.88
2023-05-16T06:09:15.156Z,6.72
2023-05-16T06:11:43.430Z,8.98
2023-05-16T06:14:10.256Z,7.88
2023-05-16T06:16:37.205Z,7.38
2023-05-16T06:19:04.258Z,12.80
2023-05-16T06:21:31.173Z,14.32
2023-05-16T06:23:57.915Z,6.97
2023-05-16T06:26:25.039Z,10.38
2023-05-16T06:28:51.737Z,10.07
2023-05-16T06:31:18.451Z,13.15
2023-05-16T06:33:45.889Z,12.57
2023-05-16T06:36:12.711Z,11.38
2023-05-16T06:38:39.499Z,11.70
2023-05-16T06:41:06.192Z,11.68
2023-05-16T06:43:33.173Z,13.27
2023-05-16T06:46:00.012Z,10.55
2023-05-16T06:48:26.932Z,11.15
2023-05-16T06:50:53.823Z,17.95
2023-05-16T06:53:20.769Z,8.27
2023-05-16T06:55:47.608Z,11.57
2023-05-16T06:58:14.418Z,11.93
2023-05-16T07:00:41.747Z,14.07
2023-05-16T07:03:08.691Z,14.48
2023-05-16T07:05:35.817Z,10.45
2023-05-16T07:08:03.591Z,8.30
2023-05-16T07:10:31.544Z,11.63
2023-05-16T07:12:58.421Z,12.73
2023-05-16T07:15:25.515Z,10.27
2023-05-16T07:17:52.763Z,7.88
2023-05-16T07:20:19.595Z,14.45
2023-05-16T07:22:46.371Z,10.45
2023-05-16T07:25:14.475Z,8.32
2023-05-16T07:27:42.231Z,12.48
2023-05-16T07:30:11.135Z,14.73
2023-05-16T07:32:38.145Z,13.57
2023-05-16T07:35:05.390Z,10.48
2023-05-16T07:37:32.346Z,9.02
2023-05-16T07:39:59.053Z,16.30
2023-05-16T07:42:26.050Z,13.45
2023-05-16T07:44:52.859Z,11.30
2023-05-16T07:47:19.642Z,8.35
2023-05-16T07:49:46.435Z,10.10
2023-05-16T07:52:13.213Z,12.30
2023-05-16T07:54:41.885Z,13.73
2023-05-16T07:57:08.906Z,6.72
2023-05-16T07:59:35.840Z,7.50
2023-05-16T08:02:02.937Z,9.65
2023-05-16T08:04:29.928Z,8.85
2023-05-16T08:06:56.936Z,10.43
2023-05-16T08:09:23.840Z,9.20
2023-05-16T08:11:50.722Z,8.73
2023-05-16T08:14:17.625Z,10.02
2023-05-16T08:16:44.812Z,11.85
2023-05-16T08:19:12.083Z,9.02
2023-05-16T08:21:38.928Z,10.50
2023-05-16T08:24:06.531Z,8.23
2023-05-16T08:26:33.347Z,12.82
2023-05-16T08:29:00.396Z,8.50
2023-05-16T08:31:27.490Z,8.07
2023-05-16T08:33:54.253Z,13.68
2023-05-16T08:36:21.148Z,13.55
2023-05-16T08:38:50.738Z,7.30
2023-05-16T08:41:17.598Z,12.48
2023-05-16T08:43:44.703Z,7.93
2023-05-16T08:46:11.558Z,8.02
2023-05-16T08:48:40.508Z,7.18
2023-05-16T08:51:10.735Z,9.88
2023-05-16T08:53:43.016Z,9.82
2023-05-16T08:56:10.857Z,10.98
2023-05-16T08:58:38.439Z,10.57
2023-05-16T09:01:08.961Z,4.82
2023-05-16T09:03:37.847Z,7.47
2023-05-16T09:06:08.140Z,8.70
2023-05-16T09:08:35.571Z,11.63
2023-05-16T09:11:03.897Z,10.38
2023-05-16T09:13:30.808Z,5.28
2023-05-16T09:16:18.103Z,7.22
2023-05-16T09:18:53.626Z,9.02
2023-05-16T09:21:20.992Z,5.45
2023-05-16T09:23:50.100Z,9.95
2023-05-16T09:26:17.021Z,9.40
2023-05-16T09:28:46.371Z,6.32
2023-05-16T09:31:21.958Z,6.90
2023-05-16T09:33:52.317Z,6.55
2023-05-16T09:36:19.544Z,6.30
2023-05-16T09:38:46.397Z,8.05
2023-05-16T09:41:13.520Z,4.82
2023-05-16T09:43:43.038Z,6.70
2023-05-16T09:46:16.463Z,13.38
2023-05-16T09:48:51.998Z,6.60
2023-05-16T09:51:22.965Z,10.43
2023-05-16T09:53:50.042Z,10.25
2023-05-16T09:56:16.984Z,7.57
2023-05-16T09:58:45.019Z,5.13
2023-05-16T10:01:12.746Z,8.00
2023-05-16T10:03:42.348Z,6.50
2023-05-16T10:06:10.633Z,6.75
2023-05-16T10:08:38.539Z,6.93
2023-05-16T10:11:06.521Z,10.00
2023-05-16T10:13:35.316Z,7.10
2023-05-16T10:16:08.379Z,6.53
2023-05-16T10:18:36.239Z,8.48
2023-05-16T10:21:18.073Z,7.13
2023-05-16T10:23:48.740Z,6.57
2023-05-16T10:26:17.584Z,7.40
2023-05-16T10:28:45.487Z,6.25
2023-05-16T10:31:12.783Z,5.35
2023-05-16T10:33:40.717Z,9.18
2023-05-16T10:36:12.046Z,6.95
2023-05-16T10:38:39.477Z,4.85
2023-05-16T10:41:07.356Z,6.30
2023-05-16T10:43:34.496Z,9.27
2023-05-16T10:46:09.869Z,4.85
2023-05-16T10:48:39.096Z,8.77
2023-05-16T10:51:36.800Z,7.90
2023-05-16T10:54:15.600Z,8.93
2023-05-16T10:56:43.351Z,5.38
2023-05-16T10:59:27.145Z,7.35
2023-05-16T11:01:56.426Z,5.28
2023-05-16T11:04:23.604Z,10.07
2023-05-16T11:06:52.928Z,5.47
2023-05-16T11:09:26.766Z,7.15
2023-05-16T11:12:00.685Z,4.85
2023-05-16T11:14:47.610Z,6.03
2023-05-16T11:17:16.517Z,5.53
2023-05-16T11:19:50.656Z,6.63
2023-05-16T11:22:23.289Z,9.98
2023-05-16T11:25:05.444Z,6.28
2023-05-16T11:27:49.046Z,5.50
2023-05-16T11:30:18.026Z,7.55
2023-05-16T11:32:46.157Z,5.20
2023-05-16T11:35:17.822Z,5.90
2023-05-16T11:37:46.998Z,5.00
2023-05-16T11:40:14.555Z,7.70
2023-05-16T11:42:46.486Z,8.45
2023-05-16T11:45:16.889Z,3.47
2023-05-16T11:47:45.776Z,6.82
2023-05-16T11:50:14.902Z,5.72
2023-05-16T11:52:53.871Z,6.68
2023-05-16T11:55:39.519Z,4.38
2023-05-16T11:58:08.184Z,4.97
2023-05-16T12:00:35.059Z,6.40
2023-05-16T12:03:08.248Z,7.05
2023-05-16T12:05:35.736Z,7.70
2023-05-16T12:08:05.040Z,5.68
2023-05-16T12:10:34.335Z,6.07
2023-05-16T12:13:02.309Z,4.70
2023-05-16T12:15:29.412Z,5.47
2023-05-16T12:17:56.962Z,6.57
2023-05-16T12:20:26.325Z,8.27
2023-05-16T12:22:53.340Z,7.05
2023-05-16T12:25:24.390Z,4.13
2023-05-16T12:27:53.733Z,5.53
2023-05-16T12:30:22.941Z,3.95
2023-05-16T12:32:56.141Z,6.03
2023-05-16T12:35:24.217Z,7.07
2023-05-16T12:37:53.959Z,5.45
2023-05-16T12:40:20.893Z,6.28
2023-05-16T12:42:54.620Z,5.80
2023-05-16T12:45:23.191Z,7.75
2023-05-16T12:47:51.008Z,11.65
2023-05-16T12:50:18.143Z,6.60
2023-05-16T12:52:52.165Z,5.22
2023-05-16T12:55:20.683Z,6.75
2023-05-16T12:57:48.456Z,7.82
2023-05-16T13:00:19.092Z,8.02
2023-05-16T13:02:46.662Z,7.80
2023-05-16T13:05:13.650Z,6.90
2023-05-16T13:07:40.974Z,8.52
2023-05-16T13:10:11.876Z,7.65
2023-05-16T13:12:39.691Z,6.28
2023-05-16T13:15:08.258Z,7.00
2023-05-16T13:17:35.547Z,9.77
2023-05-16T13:20:05.574Z,9.50
2023-05-16T13:22:33.065Z,10.18
2023-05-16T13:25:00.325Z,7.20
2023-05-16T13:27:27.086Z,9.30
2023-05-16T13:29:53.964Z,7.82
2023-05-16T13:32:20.864Z,11.02
2023-05-16T13:34:47.728Z,7.82
2023-05-16T13:37:14.572Z,8.90
2023-05-16T13:39:41.688Z,7.93
2023-05-16T13:42:08.534Z,12.60
2023-05-16T13:44:35.498Z,6.32
2023-05-16T13:47:02.969Z,8.40
2023-05-16T13:49:29.989Z,9.07
2023-05-16T13:51:58.318Z,7.38
2023-05-16T13:54:25.114Z,10.90
2023-05-16T13:56:51.989Z,9.90
2023-05-16T13:59:28.515Z,8.88
2023-05-16T14:01:59.412Z,10.43
2023-05-16T14:04:26.592Z,7.50
2023-05-16T14:06:54.559Z,9.70
2023-05-16T14:09:21.844Z,7.53
2023-05-16T14:11:48.625Z,7.63
2023-05-16T14:14:15.547Z,5.28
2023-05-16T14:16:46.183Z,5.38
2023-05-16T14:19:15.309Z,6.05
2023-05-16T14:21:43.656Z,5.07
2023-05-16T14:24:10.465Z,9.75
2023-05-16T14:26:37.254Z,7.47
2023-05-16T14:29:04.377Z,7.60
2023-05-16T14:31:31.334Z,6.00
2023-05-16T14:33:59.006Z,8.27
2023-05-16T14:36:25.753Z,7.85
2023-05-16T14:38:52.861Z,9.55
2023-05-16T14:41:19.653Z,5.78
2023-05-16T14:43:46.521Z,6.03
2023-05-16T14:46:14.055Z,9.13
2023-05-16T14:48:41.227Z,5.68
2023-05-16T14:51:08.059Z,7.55
2023-05-16T14:53:35.096Z,6.28
2023-05-16T14:56:02.916Z,5.18
2023-05-16T14:58:30.721Z,2.60
2023-05-16T15:00:57.934Z,4.63
2023-05-16T15:03:25.288Z,5.38
2023-05-16T15:05:52.804Z,2.97
2023-05-16T15:08:19.678Z,3.17
2023-05-16T15:10:46.556Z,11.18
2023-05-16T15:13:13.327Z,5.75
2023-05-16T15:15:40.202Z,5.00
2023-05-16T15:18:07.026Z,5.07
2023-05-16T15:20:34.237Z,4.40
2023-05-16T15:23:01.022Z,5.95
2023-05-16T15:25:28.172Z,4.72
2023-05-16T15:27:55.636Z,4.85
2023-05-16T15:30:22.437Z,5.38
2023-05-16T15:32:49.208Z,6.70
2023-05-16T15:35:16.396Z,6.63
2023-05-16T15:37:43.846Z,6.95
2023-05-16T15:40:11.554Z,5.53
2023-05-16T15:42:38.457Z,5.68
2023-05-16T15:45:06.038Z,5.10
2023-05-16T15:47:33.007Z,3.38
2023-05-16T15:49:59.772Z,5.70
2023-05-16T15:52:26.673Z,4.72
2023-05-16T15:54:53.519Z,8.80
2023-05-16T15:57:20.489Z,6.05
2023-05-16T15:59:47.302Z,3.40
2023-05-16T16:02:14.057Z,9.77
2023-05-16T16:04:40.902Z,5.07
2023-05-16T16:07:07.783Z,5.45
2023-05-16T16:09:34.684Z,6.05
2023-05-16T16:12:01.428Z,3.90
2023-05-16T16:14:28.207Z,5.75
2023-05-16T16:16:54.943Z,10.55
2023-05-16T16:19:21.925Z,4.80
2023-05-16T16:21:48.951Z,3.72
2023-05-16T16:24:15.946Z,2.40
2023-05-16T16:26:43.489Z,2.40
2023-05-16T16:29:10.248Z,4.97
2023-05-16T16:31:37.191Z,7.60
2023-05-16T16:34:04.190Z,3.72
2023-05-16T16:36:32.547Z,6.53
2023-05-16T16:38:59.648Z,5.68
2023-05-16T16:41:26.441Z,5.15
2023-05-16T16:43:53.187Z,5.22
2023-05-16T16:46:20.306Z,5.18
2023-05-16T16:48:47.863Z,4.55
2023-05-16T16:51:14.626Z,5.32
2023-05-16T16:53:41.706Z,7.30
2023-05-16T16:56:08.554Z,6.65
2023-05-16T16:58:35.317Z,5.32
2023-05-16T17:01:02.432Z,5.55
2023-05-16T17:03:29.330Z,4.80
2023-05-16T17:05:56.132Z,5.57
2023-05-16T17:08:22.939Z,3.40
2023-05-16T17:10:49.816Z,6.93
2023-05-16T17:13:17.583Z,5.88
2023-05-16T17:15:44.410Z,8.20
2023-05-16T17:18:11.308Z,9.65
2023-05-16T17:20:38.250Z,5.47
2023-05-16T17:23:05.474Z,3.38
2023-05-16T17:25:32.587Z,6.57
2023-05-16T17:27:59.430Z,8.40
2023-05-16T17:30:26.345Z,5.85
2023-05-16T17:32:54.030Z,9.25
2023-05-16T17:35:21.107Z,6.85
2023-05-16T17:37:48.125Z,5.85
2023-05-16T17:40:17.259Z,5.53
2023-05-16T17:42:45.137Z,6.82
2023-05-16T17:45:16.316Z,4.82
2023-05-16T17:47:43.474Z,4.30
2023-05-16T17:50:10.991Z,8.20
2023-05-16T17:52:39.793Z,3.67
2023-05-16T17:55:09.465Z,2.83
2023-05-16T17:57:36.557Z,5.95
2023-05-16T18:00:05.836Z,4.78
2023-05-16T18:02:32.944Z,4.88
2023-05-16T18:04:59.810Z,4.20
2023-05-16T18:07:27.139Z,2.85
2023-05-16T18:09:54.635Z,3.58
2023-05-16T18:12:21.626Z,5.57
2023-05-16T18:14:48.492Z,4.22
2023-05-16T18:17:15.348Z,4.05
2023-05-16T18:19:42.317Z,3.42
2023-05-16T18:22:11.916Z,3.92
2023-05-16T18:24:39.755Z,3.97
2023-05-16T18:27:06.698Z,3.35
2023-05-16T18:29:34.254Z,2.47
2023-05-16T18:32:01.295Z,3.20
2023-05-16T18:34:28.385Z,2.75
2023-05-16T18:36:55.201Z,2.75
2023-05-16T18:39:22.049Z,4.93
2023-05-16T18:41:49.028Z,4.40
2023-05-16T18:44:17.234Z,4.28
2023-05-16T18:46:46.115Z,3.80
2023-05-16T18:49:14.451Z,5.00
2023-05-16T18:51:41.653Z,9.35
2023-05-16T18:54:08.474Z,2.42
2023-05-16T18:56:35.411Z,4.15
2023-05-16T18:59:02.265Z,6.93
2023-05-16T19:01:29.139Z,4.07
2023-05-16T19:03:56.121Z,2.45
2023-05-16T19:06:23.225Z,4.50
2023-05-16T19:08:50.086Z,3.13
2023-05-16T19:11:17.940Z,5.43
2023-05-16T19:13:45.922Z,5.13
2023-05-16T19:16:13.233Z,3.28
2023-05-16T19:18:40.315Z,3.00
2023-05-16T19:21:08.592Z,4.30
2023-05-16T19:23:35.515Z,3.58
2023-05-16T19:26:02.415Z,6.28
2023-05-16T19:28:29.512Z,3.88
2023-05-16T19:30:56.600Z,3.78
2023-05-16T19:33:23.393Z,4.15
2023-05-16T19:35:52.834Z,4.97
2023-05-16T19:38:24.462Z,5.60
2023-05-16T19:40:53.045Z,5.50
2023-05-16T19:43:19.864Z,6.22
2023-05-16T19:45:46.723Z,6.30
2023-05-16T19:48:13.941Z,5.30
2023-05-16T19:50:41.110Z,4.70
2023-05-16T19:53:08.157Z,4.32
2023-05-16T19:55:37.885Z,4.90
2023-05-16T19:58:05.112Z,5.18
2023-05-16T20:00:31.916Z,4.53
2023-05-16T20:02:58.936Z,3.95
2023-05-16T20:05:27.016Z,8.23
2023-05-16T20:07:55.257Z,9.27
2023-05-16T20:10:22.534Z,5.47
2023-05-16T20:12:49.332Z,3.55
2023-05-16T20:15:16.268Z,6.07
2023-05-16T20:17:43.248Z,5.43
2023-05-16T20:20:10.647Z,8.20
2023-05-16T20:22:41.613Z,7.53
2023-05-16T20:25:10.399Z,8.20
2023-05-16T20:27:37.846Z,6.60
2023-05-16T20:30:07.032Z,9.00
2023-05-16T20:32:34.440Z,10.07
2023-05-16T20:35:04.278Z,10.20
2023-05-16T20:37:31.091Z,7.30
2023-05-16T20:39:57.951Z,8.55
2023-05-16T20:42:24.814Z,8.23
2023-05-16T20:44:51.780Z,7.25
2023-05-16T20:47:18.456Z,6.80
2023-05-16T20:49:45.258Z,7.28
2023-05-16T20:52:12.276Z,9.32
2023-05-16T20:54:39.066Z,7.88
2023-05-16T20:57:06.098Z,8.48
2023-05-16T20:59:33.999Z,11.55
2023-05-16T21:02:00.809Z,9.27
2023-05-16T21:04:27.720Z,9.07
2023-05-16T21:06:54.444Z,9.65
2023-05-16T21:09:21.267Z,10.77
2023-05-16T21:11:48.154Z,10.98
2023-05-16T21:14:15.257Z,12.75
2023-05-16T21:16:42.456Z,12.20
2023-05-16T21:19:09.367Z,10.10
2023-05-16T21:21:36.333Z,14.40
2023-05-16T21:24:04.360Z,15.73
2023-05-16T21:26:31.110Z,13.80
2023-05-16T21:28:57.975Z,15.30
2023-05-16T21:31:24.751Z,16.63
2023-05-16T21:33:52.498Z,11.90
2023-05-16T21:36:20.660Z,17.60
2023-05-16T21:38:47.977Z,12.20
2023-05-16T21:41:15.009Z,16.10
2023-05-16T21:43:41.908Z,16.75
2023-05-16T21:46:08.777Z,19.20
2023-05-16T21:48:35.957Z,14.30
2023-05-16T21:51:03.610Z,16.17
2023-05-16T21:53:30.472Z,17.75
2023-05-16T21:55:57.476Z,17.08
2023-05-16T21:58:25.248Z,20.52
2023-05-16T22:00:52.150Z,20.08
2023-05-16T22:03:21.052Z,25.73
2023-05-16T22:05:48.233Z,24.92
2023-05-16T22:08:15.103Z,17.08
2023-05-16T22:10:42.069Z,21.23
2023-05-16T22:13:08.958Z,16.30
2023-05-16T22:15:35.833Z,21.13
2023-05-16T22:18:03.071Z,16.55
2023-05-16T22:20:29.979Z,17.55
2023-05-16T22:22:57.077Z,25.23
2023-05-16T22:25:24.016Z,21.15
2023-05-16T22:27:50.905Z,19.42
2023-05-16T22:30:18.397Z,19.13
2023-05-16T22:32:46.861Z,19.98
2023-05-16T22:35:14.089Z,21.00
2023-05-16T22:37:41.015Z,16.40
2023-05-16T22:40:08.803Z,17.05
2023-05-16T22:42:35.704Z,17.80
2023-05-16T22:45:03.774Z,23.33
2023-05-16T22:47:30.801Z,17.38
2023-05-16T22:49:57.581Z,16.90
2023-05-16T22:52:24.406Z,12.20
2023-05-16T22:54:51.262Z,15.30
2023-05-16T22:57:18.152Z,18.20
2023-05-16T22:59:44.942Z,12.95
2023-05-16T23:02:11.760Z,17.08
2023-05-16T23:04:38.723Z,16.25
2023-05-16T23:07:05.664Z,13.15
2023-05-16T23:09:32.608Z,15.15
2023-05-16T23:11:59.397Z,16.73
2023-05-16T23:14:26.454Z,19.85
2023-05-16T23:16:53.215Z,19.15
2023-05-16T23:19:20.342Z,13.43
2023-05-16T23:21:47.217Z,15.77
2023-05-16T23:24:14.031Z,15.25
2023-05-16T23:26:40.836Z,14.68
2023-05-16T23:29:07.782Z,10.38
2023-05-16T23:31:34.608Z,12.55
2023-05-16T23:34:01.613Z,12.88
2023-05-16T23:36:28.424Z,19.58
2023-05-16T23:38:55.340Z,11.70
2023-05-16T23:41:22.180Z,18.55
2023-05-16T23:43:49.048Z,16.42
2023-05-16T23:46:15.928Z,15.48
2023-05-16T23:48:42.851Z,13.20
2023-05-16T23:51:09.780Z,18.35
2023-05-16T23:53:36.650Z,16.98
2023-05-16T23:56:03.559Z,17.67
2023-05-16T23:58:30.634Z,14.18
